Time;durP1;ratioP1;P1;durP2;ratioP2;P2;SDS_P1;SDS_P2;PMS_P1;PMS_P2;Temp;Humidity;BMP_temperature;BMP_pressure;BME280_temperature;BME280_humidity;BME280_pressure;Samples;Min_cycle;Max_cycle;Signal;HPM_P1;HPM_P2
2023/03/09 00:00:54;;;;;;;25.13;17.17;;;2.60;99.90;;;;;;5093549;28;20091;-77
2023/03/09 00:03:20;;;;;;;24.83;17.07;;;2.70;99.90;;;;;;5093493;28;20507;-77
2023/03/09 00:05:54;;;;;;;25.00;17.38;;;2.60;99.90;;;;;;5093442;28;20803;-77
2023/03/09 00:08:20;;;;;;;26.25;18.17;;;2.60;99.90;;;;;;5092170;28;20055;-77
2023/03/09 00:10:50;;;;;;;27.00;19.33;;;2.60;99.90;;;;;;5093930;28;20044;-76
2023/03/09 00:13:16;;;;;;;26.08;18.17;;;2.60;99.90;;;;;;5093317;28;20154;-77
2023/03/09 00:15:41;;;;;;;26.97;18.03;;;2.50;99.90;;;;;;5093775;28;20086;-77
2023/03/09 00:18:07;;;;;;;21.77;15.33;;;2.50;99.90;;;;;;5093051;28;20048;-77
2023/03/09 00:20:33;;;;;;;24.60;16.80;;;2.50;99.90;;;;;;5092123;28;20113;-77
2023/03/09 00:23:04;;;;;;;22.77;16.67;;;2.50;99.90;;;;;;5093091;28;20050;-77
2023/03/09 00:25:29;;;;;;;20.95;15.10;;;2.50;99.90;;;;;;5093684;28;20056;-77
2023/03/09 00:27:55;;;;;;;20.47;15.17;;;2.40;99.90;;;;;;5093361;28;20048;-77
2023/03/09 00:30:21;;;;;;;22.57;16.53;;;2.40;99.90;;;;;;5093045;28;20086;-77
2023/03/09 00:32:46;;;;;;;23.93;16.47;;;2.40;99.90;;;;;;5092095;28;20463;-77
2023/03/09 00:35:12;;;;;;;22.00;15.60;;;2.30;99.90;;;;;;5093014;28;20048;-77
2023/03/09 00:37:38;;;;;;;20.23;15.57;;;2.40;99.90;;;;;;5092861;28;20400;-77
2023/03/09 00:40:07;;;;;;;22.37;15.83;;;2.30;99.90;;;;;;5093539;28;20051;-77
2023/03/09 00:42:33;;;;;;;23.40;16.65;;;2.30;99.90;;;;;;5092868;28;20048;-77
2023/03/09 00:45:00;;;;;;;21.17;14.10;;;2.30;99.90;;;;;;5092858;28;20055;-77
2023/03/09 00:47:27;;;;;;;20.85;15.60;;;2.30;99.90;;;;;;5093381;28;20112;-77
2023/03/09 00:49:52;;;;;;;22.48;14.27;;;2.30;99.90;;;;;;5093345;28;20127;-77
2023/03/09 00:52:18;;;;;;;21.17;14.80;;;2.30;99.90;;;;;;5092702;28;20553;-77
2023/03/09 00:54:44;;;;;;;21.17;14.20;;;2.30;99.90;;;;;;5097335;28;20042;-77
2023/03/09 00:57:09;;;;;;;21.03;14.43;;;2.20;99.90;;;;;;5095269;28;20499;-77
2023/03/09 00:59:35;;;;;;;20.23;13.47;;;2.20;99.90;;;;;;5097115;28;20136;-77
2023/03/09 01:02:01;;;;;;;22.57;14.87;;;2.20;99.90;;;;;;5096981;28;20495;-77
2023/03/09 01:04:26;;;;;;;19.43;13.67;;;2.20;99.90;;;;;;5096450;28;20036;-77
2023/03/09 01:06:56;;;;;;;18.27;13.73;;;2.20;99.90;;;;;;5096399;28;20075;-77
2023/03/09 01:09:21;;;;;;;20.60;13.85;;;2.10;99.90;;;;;;5096224;28;20051;-77
2023/03/09 01:11:47;;;;;;;22.83;14.67;;;2.00;99.90;;;;;;5096225;28;20044;-77
2023/03/09 01:14:13;;;;;;;20.37;15.13;;;2.10;99.90;;;;;;5095023;28;20055;-77
2023/03/09 01:16:39;;;;;;;20.93;14.07;;;2.00;99.90;;;;;;5096171;28;20040;-76
2023/03/09 01:19:04;;;;;;;21.37;14.57;;;2.00;99.90;;;;;;5095335;28;20423;-76
2023/03/09 01:21:30;;;;;;;22.37;13.80;;;2.00;99.90;;;;;;5095693;28;20055;-77
2023/03/09 01:23:56;;;;;;;20.80;14.45;;;2.00;99.90;;;;;;5096045;28;20127;-77
2023/03/09 01:26:22;;;;;;;21.07;15.33;;;2.00;99.90;;;;;;5095963;28;20460;-77
2023/03/09 01:28:48;;;;;;;22.00;15.07;;;1.90;99.90;;;;;;5095923;28;20454;-76
2023/03/09 01:31:15;;;;;;;21.63;15.53;;;1.90;99.90;;;;;;5095502;28;20440;-77
2023/03/09 01:33:42;;;;;;;20.60;14.93;;;1.90;99.90;;;;;;5095101;28;20052;-77
2023/03/09 01:36:11;;;;;;;21.45;14.88;;;1.80;99.90;;;;;;5095747;28;20086;-77
2023/03/09 01:38:38;;;;;;;17.25;13.23;;;1.80;99.90;;;;;;5095236;28;20066;-77
2023/03/09 01:41:04;;;;;;;22.33;14.40;;;1.80;99.90;;;;;;5095249;28;20044;-77
2023/03/09 01:43:34;;;;;;;20.20;14.83;;;1.80;99.90;;;;;;5095600;28;20040;-77
2023/03/09 01:46:24;;;;;;;20.52;13.75;;;1.80;99.90;;;;;;5095860;28;20100;-76
2023/03/09 01:49:23;;;;;;;20.08;13.07;;;1.80;99.90;;;;;;5095504;28;20055;-77
2023/03/09 01:52:05;;;;;;;19.35;13.93;;;1.80;99.90;;;;;;5096107;28;20135;-77
2023/03/09 01:54:43;;;;;;;19.17;13.30;;;1.70;99.90;;;;;;5095295;28;20044;-76
2023/03/09 01:57:21;;;;;;;21.83;14.15;;;1.70;99.90;;;;;;5094834;28;20337;-76
2023/03/09 01:59:48;;;;;;;21.50;13.52;;;1.70;99.90;;;;;;5096607;28;20368;-76
2023/03/09 02:02:16;;;;;;;21.60;14.40;;;1.60;99.90;;;;;;5095798;28;20100;-76
2023/03/09 02:04:48;;;;;;;22.00;14.82;;;1.70;99.90;;;;;;5093079;28;20051;-77
2023/03/09 02:07:18;;;;;;;20.05;13.45;;;1.60;99.90;;;;;;5095540;28;20048;-78
2023/03/09 02:09:49;;;;;;;19.38;13.23;;;1.60;99.90;;;;;;5095605;28;20040;-77
2023/03/09 02:12:19;;;;;;;18.15;12.40;;;1.60;99.90;;;;;;5095065;28;20043;-77
2023/03/09 02:14:45;;;;;;;20.00;12.73;;;1.60;99.90;;;;;;5094958;28;20052;-77
2023/03/09 02:17:12;;;;;;;21.40;14.83;;;1.70;99.90;;;;;;5095797;28;20464;-77
2023/03/09 02:20:05;;;;;;;18.80;12.50;;;1.70;99.90;;;;;;5094792;28;20040;-77
2023/03/09 02:22:36;;;;;;;21.15;13.13;;;1.70;99.90;;;;;;5094802;28;20048;-77
2023/03/09 02:25:16;;;;;;;18.73;13.82;;;1.70;99.90;;;;;;5094725;28;20044;-77
2023/03/09 02:27:42;;;;;;;20.00;12.75;;;1.70;99.90;;;;;;5094799;28;20472;-77
2023/03/09 02:30:09;;;;;;;20.77;13.25;;;1.70;99.90;;;;;;5093727;28;20392;-77
2023/03/09 02:32:35;;;;;;;17.70;11.77;;;1.70;99.90;;;;;;5094625;28;20201;-77
2023/03/09 02:35:00;;;;;;;19.20;12.07;;;1.70;99.90;;;;;;5094865;28;20093;-77
2023/03/09 02:37:33;;;;;;;20.70;12.40;;;1.70;99.90;;;;;;5094548;28;20047;-77
2023/03/09 02:40:38;;;;;;;17.90;11.85;;;1.70;99.90;;;;;;5094547;28;20051;-77
2023/03/09 02:43:04;;;;;;;16.30;11.05;;;1.60;99.90;;;;;;5032481;28;20056;-77
2023/03/09 02:45:32;;;;;;;18.95;12.88;;;1.60;99.90;;;;;;5082394;28;20499;-75
2023/03/09 02:47:58;;;;;;;18.25;12.02;;;1.60;99.90;;;;;;5095158;28;20435;-77
2023/03/09 02:50:24;;;;;;;21.40;13.48;;;1.60;99.90;;;;;;5093370;28;20365;-77
2023/03/09 02:52:50;;;;;;;18.83;13.60;;;1.60;99.90;;;;;;5094338;28;20101;-77
2023/03/09 02:55:17;;;;;;;18.92;12.85;;;1.60;99.90;;;;;;5094247;28;20048;-77
2023/03/09 02:57:43;;;;;;;20.00;13.07;;;1.60;99.90;;;;;;5092986;28;20102;-77
2023/03/09 03:00:11;;;;;;;22.00;14.33;;;1.70;99.90;;;;;;5093868;28;20499;-77
2023/03/09 03:02:38;;;;;;;20.25;13.05;;;1.60;99.90;;;;;;5093929;28;20044;-77
2023/03/09 03:05:05;;;;;;;20.13;14.02;;;1.60;99.90;;;;;;5094068;28;20044;-77
2023/03/09 03:07:30;;;;;;;20.00;13.48;;;1.60;99.90;;;;;;5093938;28;20062;-77
2023/03/09 03:09:56;;;;;;;21.50;13.57;;;1.60;99.90;;;;;;5092734;28;20044;-77
2023/03/09 03:12:22;;;;;;;19.63;13.57;;;1.60;99.90;;;;;;5094039;28;20051;-77
2023/03/09 03:14:48;;;;;;;24.13;14.20;;;1.60;99.90;;;;;;5092461;28;20414;-77
2023/03/09 03:17:14;;;;;;;22.63;14.33;;;1.60;99.90;;;;;;5092736;28;20039;-77
2023/03/09 03:19:39;;;;;;;20.03;13.47;;;1.60;99.90;;;;;;5093770;28;20038;-77
2023/03/09 03:22:06;;;;;;;21.73;14.70;;;1.60;99.90;;;;;;5094155;28;20464;-77
2023/03/09 03:24:39;;;;;;;21.08;14.20;;;1.60;99.90;;;;;;5094352;28;20040;-77
2023/03/09 03:27:05;;;;;;;21.05;13.88;;;1.60;99.90;;;;;;5094272;28;20119;-77
2023/03/09 03:29:31;;;;;;;20.08;14.00;;;1.60;99.90;;;;;;5093699;28;20081;-77
2023/03/09 03:31:57;;;;;;;20.90;14.07;;;1.60;99.90;;;;;;5093403;28;20077;-77
2023/03/09 03:34:22;;;;;;;21.70;14.90;;;1.60;99.90;;;;;;5093671;28;20047;-77
2023/03/09 03:36:48;;;;;;;22.40;14.47;;;1.60;99.90;;;;;;5093324;28;20047;-77
2023/03/09 03:39:14;;;;;;;24.57;14.73;;;1.60;99.90;;;;;;5093518;28;20503;-77
2023/03/09 03:41:40;;;;;;;20.03;14.20;;;1.60;99.90;;;;;;5094215;28;20075;-77
2023/03/09 03:44:05;;;;;;;21.80;14.73;;;1.60;99.90;;;;;;5093479;28;20044;-77
2023/03/09 03:46:31;;;;;;;20.60;14.43;;;1.60;99.90;;;;;;5092242;28;20056;-77
2023/03/09 03:48:57;;;;;;;22.23;15.33;;;1.60;99.90;;;;;;5094199;28;20052;-77
2023/03/09 03:51:23;;;;;;;27.27;15.33;;;1.60;99.90;;;;;;5092442;28;20054;-77
2023/03/09 03:53:49;;;;;;;21.95;15.02;;;1.60;99.90;;;;;;5093331;28;20047;-77
2023/03/09 03:56:15;;;;;;;24.13;15.30;;;1.60;99.90;;;;;;5093420;28;20063;-76
2023/03/09 03:58:41;;;;;;;22.53;14.93;;;1.50;99.90;;;;;;5093236;28;20456;-77
2023/03/09 04:01:07;;;;;;;22.77;14.93;;;1.50;99.90;;;;;;5092130;28;20488;-77
2023/03/09 04:03:33;;;;;;;20.65;14.38;;;1.50;99.90;;;;;;5093247;28;20086;-77
2023/03/09 04:05:59;;;;;;;25.43;15.73;;;1.40;99.90;;;;;;5092947;28;20464;-77
2023/03/09 04:08:25;;;;;;;20.63;14.47;;;1.50;99.90;;;;;;5092074;28;20123;-77
2023/03/09 04:10:50;;;;;;;20.93;15.10;;;1.50;99.90;;;;;;5093200;28;20087;-77
2023/03/09 04:13:16;;;;;;;21.77;15.63;;;1.40;99.90;;;;;;5093173;28;20119;-76
2023/03/09 04:15:42;;;;;;;23.53;15.83;;;1.50;99.90;;;;;;5091961;28;20044;-76
2023/03/09 04:18:08;;;;;;;26.23;18.00;;;1.50;99.90;;;;;;5093593;28;20044;-77
2023/03/09 04:20:35;;;;;;;26.40;16.03;;;1.50;99.90;;;;;;5093154;28;20109;-77
2023/03/09 04:23:01;;;;;;;24.67;16.95;;;1.50;99.90;;;;;;5092333;28;20152;-76
2023/03/09 04:25:27;;;;;;;25.47;16.07;;;1.50;99.90;;;;;;5093140;28;20077;-76
2023/03/09 04:27:54;;;;;;;25.73;16.13;;;1.50;99.90;;;;;;5095255;28;20116;-77
2023/03/09 04:30:20;;;;;;;28.50;17.85;;;1.40;99.90;;;;;;5096827;28;20093;-77
2023/03/09 04:32:47;;;;;;;25.47;16.57;;;1.50;99.90;;;;;;5096421;28;20127;-77
2023/03/09 04:35:13;;;;;;;24.27;16.77;;;1.40;99.90;;;;;;5097252;28;20274;-76
2023/03/09 04:37:39;;;;;;;25.37;16.00;;;1.40;99.90;;;;;;5095317;28;20507;-77
2023/03/09 04:40:05;;;;;;;25.93;17.47;;;1.40;99.90;;;;;;5096867;28;20328;-76
2023/03/09 04:42:32;;;;;;;28.17;18.17;;;1.40;99.90;;;;;;5096818;28;20135;-76
2023/03/09 04:44:57;;;;;;;26.30;17.75;;;1.40;99.90;;;;;;5095588;28;20097;-76
2023/03/09 04:47:23;;;;;;;27.27;17.63;;;1.40;99.90;;;;;;5095228;28;20052;-76
2023/03/09 04:49:49;;;;;;;27.23;17.63;;;1.40;99.90;;;;;;5096712;28;20047;-76
2023/03/09 04:52:15;;;;;;;25.57;17.70;;;1.40;99.90;;;;;;5097112;28;20384;-77
2023/03/09 04:54:41;;;;;;;26.33;18.47;;;1.40;99.90;;;;;;5096607;28;20087;-77
2023/03/09 04:57:07;;;;;;;26.10;17.80;;;1.40;99.90;;;;;;5095630;28;20040;-76
2023/03/09 04:59:33;;;;;;;27.75;17.88;;;1.50;99.90;;;;;;5096407;28;20040;-77
2023/03/09 05:01:58;;;;;;;27.90;19.10;;;1.40;99.90;;;;;;5096446;28;20048;-76
2023/03/09 05:04:24;;;;;;;28.93;18.80;;;1.40;99.90;;;;;;5095232;28;20055;-77
2023/03/09 05:06:50;;;;;;;28.25;19.45;;;1.40;99.90;;;;;;5095355;28;20055;-77
2023/03/09 05:09:16;;;;;;;28.80;18.67;;;1.40;99.90;;;;;;5096330;28;20048;-77
2023/03/09 05:11:43;;;;;;;28.00;19.02;;;1.40;99.90;;;;;;5096254;28;20048;-77
2023/03/09 05:14:09;;;;;;;30.15;18.85;;;1.30;99.90;;;;;;5096225;28;20048;-77
2023/03/09 05:16:35;;;;;;;29.73;19.70;;;1.40;99.90;;;;;;5096190;28;20055;-76
2023/03/09 05:19:00;;;;;;;29.33;19.27;;;1.40;99.90;;;;;;5096055;28;20067;-77
2023/03/09 05:21:26;;;;;;;28.33;18.67;;;1.40;99.90;;;;;;5095623;28;20040;-76
2023/03/09 05:23:52;;;;;;;28.07;19.03;;;1.40;99.90;;;;;;5097085;28;20047;-77
2023/03/09 05:26:17;;;;;;;30.53;20.70;;;1.40;99.90;;;;;;5095984;28;20476;-77
2023/03/09 05:28:44;;;;;;;31.90;20.40;;;1.40;99.90;;;;;;5095933;28;20126;-77
2023/03/09 05:31:14;;;;;;;29.73;20.38;;;1.50;99.90;;;;;;5095297;28;20061;-77
2023/03/09 05:33:40;;;;;;;31.90;21.38;;;1.40;99.90;;;;;;5095847;28;20040;-77
2023/03/09 05:36:20;;;;;;;28.08;19.85;;;1.40;99.90;;;;;;5096619;28;20063;-77
2023/03/09 05:38:47;;;;;;;29.05;19.98;;;1.40;99.90;;;;;;5095452;28;20043;-77
2023/03/09 05:41:13;;;;;;;31.40;20.17;;;1.40;99.90;;;;;;5094981;28;20040;-77
2023/03/09 05:43:42;;;;;;;34.83;21.93;;;1.40;99.90;;;;;;5095958;28;20074;-77
2023/03/09 05:46:10;;;;;;;32.63;19.88;;;1.50;99.90;;;;;;5095840;28;20074;-76
2023/03/09 05:48:37;;;;;;;32.30;21.65;;;1.30;99.90;;;;;;5096733;28;20055;-77
2023/03/09 05:51:04;;;;;;;31.38;20.80;;;1.40;99.90;;;;;;5096238;28;20044;-77
2023/03/09 05:53:31;;;;;;;33.33;21.02;;;1.40;99.90;;;;;;5095412;28;20456;-76
2023/03/09 05:55:57;;;;;;;30.45;20.67;;;1.40;99.90;;;;;;5095367;28;20056;-77
2023/03/09 05:58:22;;;;;;;31.23;19.10;;;1.40;99.90;;;;;;5095858;28;20044;-77
2023/03/09 06:00:48;;;;;;;31.17;20.30;;;1.50;99.90;;;;;;5095330;28;20040;-77
2023/03/09 06:03:14;;;;;;;32.80;20.00;;;1.40;99.90;;;;;;5094983;28;20055;-77
2023/03/09 06:05:39;;;;;;;30.80;20.03;;;1.50;99.90;;;;;;5096009;28;20147;-77
2023/03/09 06:08:05;;;;;;;27.53;19.10;;;1.40;99.90;;;;;;5095676;28;20044;-77
2023/03/09 06:10:31;;;;;;;27.40;18.77;;;1.50;99.90;;;;;;5094688;28;20044;-77
2023/03/09 06:12:56;;;;;;;28.87;19.07;;;1.50;99.90;;;;;;5095055;28;20048;-77
2023/03/09 06:15:22;;;;;;;27.37;18.60;;;1.50;99.90;;;;;;5094297;28;20127;-77
2023/03/09 06:17:48;;;;;;;29.23;19.67;;;1.50;99.90;;;;;;5095137;28;20048;-77
2023/03/09 06:20:14;;;;;;;29.52;20.05;;;1.50;99.90;;;;;;5095451;28;20083;-76
2023/03/09 06:22:40;;;;;;;27.23;17.58;;;1.50;99.90;;;;;;5094929;28;20385;-77
2023/03/09 06:25:07;;;;;;;27.63;18.77;;;1.60;99.90;;;;;;5095337;28;20048;-77
2023/03/09 06:27:34;;;;;;;27.80;18.35;;;1.60;99.90;;;;;;5095575;28;20119;-77
2023/03/09 06:30:00;;;;;;;28.33;18.20;;;1.50;99.90;;;;;;5094714;28;20083;-77
2023/03/09 06:32:26;;;;;;;29.70;19.30;;;1.60;99.90;;;;;;5094756;28;20086;-77
2023/03/09 06:34:51;;;;;;;27.43;18.47;;;1.60;99.90;;;;;;5094664;28;20083;-77
2023/03/09 06:37:17;;;;;;;28.87;19.50;;;1.50;99.90;;;;;;5094999;28;20059;-77
2023/03/09 06:39:43;;;;;;;29.50;18.33;;;1.50;99.90;;;;;;5094607;28;20444;-77
2023/03/09 06:42:08;;;;;;;26.47;17.90;;;1.50;99.90;;;;;;5093345;28;20040;-76
2023/03/09 06:44:34;;;;;;;30.50;19.33;;;1.60;99.90;;;;;;5093793;28;20126;-77
2023/03/09 06:47:00;;;;;;;29.07;18.83;;;1.60;99.90;;;;;;5094214;28;20056;-76
2023/03/09 06:49:26;;;;;;;24.50;17.43;;;1.60;99.90;;;;;;5094650;28;20120;-77
2023/03/09 06:51:51;;;;;;;29.20;19.53;;;1.60;99.90;;;;;;5094976;28;20048;-77
2023/03/09 06:54:17;;;;;;;26.47;17.40;;;1.60;99.90;;;;;;5094135;28;20044;-77
2023/03/09 06:56:43;;;;;;;24.80;17.53;;;1.60;99.90;;;;;;5094339;28;20139;-76
2023/03/09 06:59:09;;;;;;;25.70;17.47;;;1.70;99.90;;;;;;5094249;28;20394;-77
2023/03/09 07:01:34;;;;;;;28.97;17.37;;;1.70;99.90;;;;;;5094527;28;20058;-76
2023/03/09 07:04:01;;;;;;;27.60;18.13;;;1.70;99.90;;;;;;5094103;28;20086;-77
2023/03/09 07:06:26;;;;;;;27.30;18.05;;;1.80;99.90;;;;;;5094817;28;20387;-76
2023/03/09 07:08:52;;;;;;;31.10;17.57;;;1.90;99.90;;;;;;5094596;28;20044;-77
2023/03/09 07:11:18;;;;;;;26.97;18.47;;;1.80;99.90;;;;;;5094065;28;20048;-76
2023/03/09 07:13:44;;;;;;;25.80;17.03;;;1.80;99.90;;;;;;5094590;28;20434;-77
2023/03/09 07:16:09;;;;;;;32.60;17.80;;;1.90;99.90;;;;;;5093905;28;20044;-77
2023/03/09 07:18:35;;;;;;;26.83;16.23;;;2.00;99.90;;;;;;5093883;28;20044;-76
2023/03/09 07:21:02;;;;;;;27.73;18.03;;;2.00;99.90;;;;;;5093898;28;20051;-77
2023/03/09 07:23:31;;;;;;;23.48;15.80;;;2.00;99.90;;;;;;5093769;28;20091;-76
2023/03/09 07:26:04;;;;;;;27.77;17.70;;;2.10;99.90;;;;;;5093703;28;20044;-77
2023/03/09 07:28:30;;;;;;;24.75;16.65;;;2.10;99.90;;;;;;5094490;28;20063;-76
2023/03/09 07:30:56;;;;;;;25.08;16.95;;;2.20;99.90;;;;;;5093860;28;20087;-77
2023/03/09 07:33:22;;;;;;;24.67;16.88;;;2.20;99.90;;;;;;5093595;28;20051;-75
2023/03/09 07:35:48;;;;;;;22.40;16.13;;;2.20;99.90;;;;;;5093354;28;20368;-75
2023/03/09 07:38:14;;;;;;;24.93;16.83;;;2.30;99.90;;;;;;5093439;28;20162;-77
2023/03/09 07:40:39;;;;;;;22.60;15.50;;;2.40;99.90;;;;;;5093838;28;20044;-76
2023/03/09 07:43:06;;;;;;;24.20;16.47;;;2.40;99.90;;;;;;5093226;28;20555;-76
2023/03/09 07:45:31;;;;;;;23.15;16.35;;;2.50;99.90;;;;;;5094180;28;20043;-76
2023/03/09 07:47:57;;;;;;;22.90;16.97;;;2.50;99.90;;;;;;5092987;28;20507;-78
2023/03/09 07:50:23;;;;;;;23.80;16.40;;;2.60;99.90;;;;;;5093523;28;20540;-77
2023/03/09 07:52:49;;;;;;;23.75;15.65;;;2.60;99.90;;;;;;5093377;28;20472;-76
2023/03/09 07:55:16;;;;;;;22.93;16.17;;;2.60;99.90;;;;;;5093068;28;20063;-74
2023/03/09 07:57:43;;;;;;;24.63;15.52;;;2.60;99.90;;;;;;5075581;28;20055;-74
2023/03/09 08:00:13;;;;;;;23.48;15.52;;;2.60;99.90;;;;;;5092178;28;20051;-75
2023/03/09 08:02:42;;;;;;;23.15;15.25;;;2.70;99.90;;;;;;5095075;28;20422;-74
2023/03/09 08:05:09;;;;;;;23.70;15.30;;;2.70;99.90;;;;;;5097642;28;20079;-74
2023/03/09 08:07:36;;;;;;;21.85;14.85;;;2.70;99.90;;;;;;5097591;28;20094;-74
2023/03/09 08:10:03;;;;;;;22.63;16.05;;;2.80;99.90;;;;;;5097573;28;20048;-74
2023/03/09 08:12:29;;;;;;;22.48;14.75;;;2.80;99.90;;;;;;5097182;28;20492;-74
2023/03/09 08:14:55;;;;;;;20.37;14.57;;;2.90;99.90;;;;;;5096298;28;20060;-74
2023/03/09 08:17:21;;;;;;;19.07;13.93;;;2.90;99.90;;;;;;5098174;28;20144;-75
2023/03/09 08:19:46;;;;;;;18.97;13.80;;;3.00;99.90;;;;;;5097276;28;20609;-74
2023/03/09 08:22:12;;;;;;;22.57;15.17;;;3.00;99.90;;;;;;5079306;28;20070;-76
2023/03/09 08:24:38;;;;;;;21.07;13.67;;;3.00;99.90;;;;;;5097768;28;20102;-75
2023/03/09 08:27:04;;;;;;;24.10;13.97;;;3.00;99.90;;;;;;5097243;28;20044;-75
2023/03/09 08:29:29;;;;;;;18.73;13.80;;;3.00;99.90;;;;;;5097240;28;20051;-74
2023/03/09 08:31:55;;;;;;;21.27;13.80;;;3.00;99.90;;;;;;5097436;28;20056;-74
2023/03/09 08:34:21;;;;;;;19.53;13.47;;;3.00;99.90;;;;;;5097646;28;20043;-74
2023/03/09 08:36:46;;;;;;;20.03;12.83;;;3.00;99.90;;;;;;5097317;28;20048;-74
2023/03/09 08:39:12;;;;;;;19.00;13.17;;;3.00;99.90;;;;;;5095675;28;20040;-75
2023/03/09 08:41:38;;;;;;;19.47;14.07;;;3.10;99.90;;;;;;5095743;28;20036;-75
2023/03/09 08:44:04;;;;;;;18.40;13.70;;;3.10;99.90;;;;;;5096950;28;20036;-74
2023/03/09 08:46:30;;;;;;;19.80;12.97;;;3.20;99.90;;;;;;5097257;28;20071;-74
2023/03/09 08:48:56;;;;;;;18.70;11.60;;;3.20;99.90;;;;;;5096760;28;20090;-74
2023/03/09 08:51:22;;;;;;;16.87;12.07;;;3.30;99.90;;;;;;5095756;28;20048;-75
2023/03/09 08:53:48;;;;;;;15.98;11.18;;;3.30;99.90;;;;;;5096773;28;20287;-75
2023/03/09 08:56:14;;;;;;;17.33;11.20;;;3.40;99.90;;;;;;5096729;28;20040;-74
2023/03/09 08:58:40;;;;;;;14.93;10.63;;;3.40;99.90;;;;;;5097124;28;20044;-76
2023/03/09 09:01:08;;;;;;;15.93;10.93;;;3.40;99.90;;;;;;5096585;28;20097;-75
2023/03/09 09:03:35;;;;;;;14.20;10.38;;;3.40;99.90;;;;;;5095097;28;20492;-74
2023/03/09 09:06:19;;;;;;;17.17;10.73;;;3.40;99.90;;;;;;5096418;28;20051;-75
2023/03/09 09:08:44;;;;;;;15.07;10.50;;;3.50;99.90;;;;;;5096516;28;20101;-75
2023/03/09 09:11:13;;;;;;;13.83;10.73;;;3.50;99.90;;;;;;5097174;28;20036;-75
2023/03/09 09:13:39;;;;;;;13.93;10.30;;;3.40;99.90;;;;;;5095838;28;20162;-74
2023/03/09 09:16:06;;;;;;;14.15;10.35;;;3.50;99.90;;;;;;5096322;28;20048;-74
2023/03/09 09:18:34;;;;;;;12.98;9.70;;;3.50;99.90;;;;;;5096118;28;20040;-74
2023/03/09 09:21:06;;;;;;;15.95;9.77;;;3.50;99.90;;;;;;5095496;28;20044;-74
2023/03/09 09:23:32;;;;;;;14.85;10.27;;;3.50;99.90;;;;;;5096348;28;20468;-74
2023/03/09 09:25:58;;;;;;;15.30;10.53;;;3.60;99.90;;;;;;5096195;28;20052;-75
2023/03/09 09:28:24;;;;;;;17.93;10.73;;;3.60;99.90;;;;;;5096033;28;20044;-76
2023/03/09 09:30:58;;;;;;;15.07;10.37;;;3.60;99.90;;;;;;5096038;28;20476;-77
2023/03/09 09:33:24;;;;;;;13.75;9.02;;;3.70;99.90;;;;;;5096004;28;20059;-75
2023/03/09 09:35:57;;;;;;;15.98;10.57;;;3.80;99.90;;;;;;5095906;28;20040;-75
2023/03/09 09:38:24;;;;;;;13.48;9.65;;;3.80;99.90;;;;;;5096337;28;20128;-74
2023/03/09 09:40:50;;;;;;;13.75;9.27;;;3.80;99.90;;;;;;5096088;28;20098;-75
2023/03/09 09:43:17;;;;;;;13.05;9.73;;;3.90;99.90;;;;;;5095740;28;20094;-76
2023/03/09 09:45:46;;;;;;;13.18;9.27;;;4.00;99.90;;;;;;5095784;28;20052;-74
2023/03/09 09:48:15;;;;;;;13.52;9.93;;;4.10;99.90;;;;;;5094090;28;20087;-73
2023/03/09 09:50:43;;;;;;;15.40;11.07;;;4.10;99.90;;;;;;5095658;28;20498;-75
2023/03/09 09:53:34;;;;;;;14.32;9.80;;;4.10;99.90;;;;;;5095570;28;20052;-73
2023/03/09 09:56:00;;;;;;;15.05;10.18;;;4.00;99.90;;;;;;5095605;28;20503;-74
2023/03/09 09:59:05;;;;;;;15.15;11.07;;;4.10;99.90;;;;;;5095669;28;20101;-74
2023/03/09 10:02:00;;;;;;;13.00;9.75;;;4.20;99.90;;;;;;5096314;28;20410;-74
2023/03/09 10:04:35;;;;;;;12.30;8.68;;;4.30;99.90;;;;;;5077563;28;20412;-73
2023/03/09 10:07:14;;;;;;;13.27;8.93;;;4.40;99.90;;;;;;5095719;28;20460;-75
2023/03/09 10:09:43;;;;;;;12.52;8.38;;;4.50;99.90;;;;;;5095924;28;20036;-76
2023/03/09 10:12:14;;;;;;;11.63;7.95;;;4.50;99.90;;;;;;5094162;28;20048;-71
2023/03/09 10:14:43;;;;;;;12.13;7.10;;;4.60;99.90;;;;;;5095215;28;20500;-75
2023/03/09 10:17:22;;;;;;;11.57;7.82;;;4.60;99.90;;;;;;5095174;28;20047;-83
2023/03/09 10:19:50;;;;;;;9.13;6.97;;;4.70;99.90;;;;;;5093877;28;20044;-76
2023/03/09 10:22:24;;;;;;;10.77;7.38;;;4.70;99.90;;;;;;5095076;28;20052;-72
2023/03/09 10:24:52;;;;;;;12.05;7.43;;;4.70;99.90;;;;;;5094194;28;20123;-76
2023/03/09 10:27:37;;;;;;;10.57;8.30;;;4.70;99.90;;;;;;5094574;28;20515;-74
2023/03/09 10:30:09;;;;;;;11.40;8.55;;;4.70;99.90;;;;;;5095156;28;20476;-73
2023/03/09 10:32:53;;;;;;;12.05;8.10;;;4.70;99.90;;;;;;5095368;28;20485;-75
2023/03/09 10:35:31;;;;;;;9.98;7.65;;;4.70;99.90;;;;;;5095688;28;20044;-75
2023/03/09 10:37:57;;;;;;;9.55;7.70;;;4.60;99.90;;;;;;5095591;28;20063;-75
2023/03/09 10:40:26;;;;;;;11.13;7.37;;;4.60;99.90;;;;;;5094747;28;20044;-75
2023/03/09 10:42:52;;;;;;;10.45;7.40;;;4.60;99.90;;;;;;5094740;28;20039;-73
2023/03/09 10:45:24;;;;;;;11.07;7.23;;;4.70;99.90;;;;;;5095139;28;20044;-72
2023/03/09 10:47:58;;;;;;;10.98;7.78;;;4.70;99.90;;;;;;5093518;28;20121;-74
2023/03/09 10:50:27;;;;;;;13.32;7.03;;;4.60;99.90;;;;;;5094545;28;20460;-73
2023/03/09 10:52:54;;;;;;;10.30;7.22;;;4.60;99.90;;;;;;5095268;28;20050;-75
2023/03/09 10:55:26;;;;;;;11.10;7.85;;;4.50;99.90;;;;;;5094671;28;20126;-75
2023/03/09 10:57:56;;;;;;;12.43;7.40;;;4.50;99.90;;;;;;5094555;28;20075;-76
2023/03/09 11:00:23;;;;;;;11.23;7.30;;;4.50;99.90;;;;;;5094367;28;20058;-75
2023/03/09 11:02:54;;;;;;;11.10;7.45;;;4.60;99.90;;;;;;5094274;28;20052;-75
2023/03/09 11:05:23;;;;;;;11.55;7.45;;;4.60;99.90;;;;;;5094095;28;20098;-75
2023/03/09 11:07:52;;;;;;;10.95;6.85;;;4.70;99.90;;;;;;5093517;28;20127;-74
2023/03/09 11:10:31;;;;;;;11.63;7.32;;;4.80;99.90;;;;;;5094160;28;20040;-75
2023/03/09 11:12:57;;;;;;;9.38;6.38;;;4.90;99.90;;;;;;5094792;28;20051;-77
2023/03/09 11:15:28;;;;;;;8.10;5.97;;;5.00;99.90;;;;;;5092557;28;20093;-78
2023/03/09 11:17:55;;;;;;;8.98;5.95;;;5.00;99.90;;;;;;5093947;28;20127;-77
2023/03/09 11:20:35;;;;;;;9.63;5.88;;;5.10;99.90;;;;;;5093982;28;20055;-77
2023/03/09 11:23:14;;;;;;;9.05;5.75;;;5.10;99.90;;;;;;5094533;28;20043;-76
2023/03/09 11:26:25;;;;;;;8.43;6.07;;;5.20;99.90;;;;;;5094461;28;20540;-75
2023/03/09 11:28:56;;;;;;;9.70;6.28;;;5.20;99.90;;;;;;5068483;28;20083;-72
2023/03/09 11:31:42;;;;;;;9.10;6.20;;;5.30;99.90;;;;;;5094108;28;20048;-72
2023/03/09 11:34:13;;;;;;;8.38;5.75;;;5.20;99.90;;;;;;5093622;28;20105;-75
2023/03/09 11:36:45;;;;;;;7.75;5.95;;;5.20;99.90;;;;;;5093615;28;20043;-76
2023/03/09 11:39:28;;;;;;;10.50;6.70;;;5.20;99.90;;;;;;5093825;28;20044;-75
2023/03/09 11:41:57;;;;;;;10.02;6.88;;;5.20;99.90;;;;;;5093387;28;20476;-74
2023/03/09 11:44:34;;;;;;;9.48;6.07;;;5.20;99.90;;;;;;5093338;28;20492;-75
2023/03/09 11:47:05;;;;;;;8.77;6.13;;;5.10;99.90;;;;;;5094234;28;20448;-74
2023/03/09 11:49:31;;;;;;;9.88;6.20;;;5.10;99.90;;;;;;5094056;28;20048;-76
2023/03/09 11:51:59;;;;;;;9.88;6.13;;;5.10;99.90;;;;;;5093608;28;20115;-76
2023/03/09 11:54:31;;;;;;;9.68;6.55;;;5.10;99.90;;;;;;5093556;28;20176;-75
2023/03/09 11:57:00;;;;;;;9.07;6.20;;;5.10;99.90;;;;;;5093512;28;20051;-76
2023/03/09 11:59:29;;;;;;;9.75;6.53;;;5.20;99.90;;;;;;5093054;28;20411;-75
2023/03/09 12:02:23;;;;;;;9.15;6.13;;;5.20;99.90;;;;;;5093132;28;20507;-75
2023/03/09 12:04:51;;;;;;;9.00;6.35;;;5.20;99.90;;;;;;5093752;28;20422;-77
2023/03/09 12:07:38;;;;;;;8.45;5.50;;;5.30;99.90;;;;;;5075864;28;20052;-76
2023/03/09 12:10:11;;;;;;;8.20;5.57;;;5.40;99.90;;;;;;5093464;28;20040;-73
2023/03/09 12:12:43;;;;;;;9.70;7.03;;;5.40;99.90;;;;;;5093575;28;20520;-75
2023/03/09 12:15:20;;;;;;;11.07;8.63;;;5.40;99.90;;;;;;5093387;28;20158;-74
2023/03/09 12:17:54;;;;;;;9.98;7.55;;;5.50;99.90;;;;;;5093603;28;20055;-74
2023/03/09 12:20:41;;;;;;;12.75;9.70;;;5.50;99.90;;;;;;5093890;28;20048;-74
2023/03/09 12:23:35;;;;;;;8.55;6.15;;;5.50;99.90;;;;;;5093685;28;20059;-74
2023/03/09 12:26:03;;;;;;;9.55;7.05;;;5.50;99.90;;;;;;5092965;28;20513;-74
2023/03/09 12:28:30;;;;;;;8.50;6.35;;;5.50;99.90;;;;;;5092098;28;20044;-74
2023/03/09 12:30:57;;;;;;;9.88;6.55;;;5.50;99.90;;;;;;5093281;28;20534;-74
2023/03/09 12:33:41;;;;;;;16.05;13.13;;;5.50;99.90;;;;;;5093232;28;20052;-74
2023/03/09 12:36:32;;;;;;;8.77;6.43;;;5.50;99.90;;;;;;5093389;28;20487;-74
2023/03/09 12:39:22;;;;;;;9.05;6.10;;;5.50;99.90;;;;;;5093421;28;20226;-74
2023/03/09 12:42:02;;;;;;;8.85;5.85;;;5.50;99.90;;;;;;5093079;28;20048;-74
2023/03/09 12:44:42;;;;;;;9.60;6.38;;;5.50;99.90;;;;;;5093056;28;20051;-77
2023/03/09 12:47:25;;;;;;;9.45;6.35;;;5.50;99.90;;;;;;5092779;28;20060;-73
2023/03/09 12:49:53;;;;;;;8.45;6.07;;;5.50;99.90;;;;;;5097431;28;20044;-73